Hlavní strana
METAR-TAF:

METAR-TAF

Letiště :

Kemerovo, Rusko

zeměpisná šířka: 55-19-48N, zeměpisná délka: 086-04-48E, výška: 260 m

Aktuální stav počasí

Zpráva byla vytvořena před 32 minutami, v 00:00 UTC
Jihojihovýchodní vítr 6 kt
Teplota -8°C
Vlhkost vzduchu 92%
Tlak 1024 hPa
Viditelnost: 8000 m

METAR: UNEE 220000Z 15003MPS 8000 NSC M08/M09 Q1024 R23/CLRD60 NOSIG RMK QFE745

Čas: 07:32 (00:32 UTC)

Předpověď počasí

Zpráva byla vytvořena před 1 hodinou a 32 minutami, v 23:00 UTC
Předpověď platná od 22 v 00 UTC do 22 v 24 UTC
Jihojihovýchodní vítr 6 kt s nárazy do 16 kt
Viditelnost 10 km a více
Žádná oblačnost pod 1500 m, nevyskytují se cumulonimby.
Dočasný
od 22 v 00 UTC do 22 v 02 UTC
Viditelnost: 0300 m
Polojasno ve výšce 300 ft
mrznoucí mlha

TAF: UNEE 212300Z 2200/2224 16003G08MPS CAVOK TEMPO 2200/2202 0300 FZFG SCT003

Stav a předpovědi počasí z více než 4 000 letišť (zprávy METAR a TAF).

Červené a žluté tečky na mapě představují dostupné meteorologické stanice.

Když kurzor umístíte na tečku, zobrazí se název stanice.

Pak kliknutím zobrazíte stav a předpověď počasí.

Chcete-li změnit mapu, kliknutím na zelené tlačítko se znaménkem +mapu přiblížíte, kliknutím na zelené tlačítko se znaménkem – mapu oddálíte a kliknutím na zelené šipky přejdete na sousední mapy.


METAR-TAF: